createdAt,value
2022-10-19T00:00:20.205Z,87.54
2022-10-19T00:01:00.381Z,87.67
2022-10-19T00:01:31.987Z,87.92
2022-10-19T00:02:04.099Z,87.31
2022-10-19T00:02:38.693Z,87.65
2022-10-19T00:03:10.306Z,87.47
2022-10-19T00:03:45.117Z,87.80
2022-10-19T00:04:16.674Z,87.86
2022-10-19T00:04:48.403Z,87.60
2022-10-19T00:05:19.858Z,87.69
2022-10-19T00:05:51.309Z,87.64
2022-10-19T00:06:28.020Z,87.90
2022-10-19T00:06:59.604Z,87.36
2022-10-19T00:07:31.353Z,87.61
2022-10-19T00:08:02.958Z,87.79
2022-10-19T00:08:34.379Z,87.90
2022-10-19T00:09:15.123Z,87.73
2022-10-19T00:09:46.829Z,87.39
2022-10-19T00:10:18.525Z,87.55
2022-10-19T00:10:50.147Z,87.19
2022-10-19T00:11:24.417Z,87.28
2022-10-19T00:11:55.972Z,87.67
2022-10-19T00:12:27.397Z,87.60
2022-10-19T00:13:02.022Z,87.35
2022-10-19T00:13:34.075Z,87.48
2022-10-19T00:14:06.917Z,87.24
2022-10-19T00:14:38.581Z,87.37
2022-10-19T00:15:10.615Z,87.38
2022-10-19T00:15:42.820Z,87.23
2022-10-19T00:16:15.692Z,87.83
2022-10-19T00:16:49.404Z,87.54
2022-10-19T00:17:20.754Z,88.02
2022-10-19T00:17:52.337Z,87.76
2022-10-19T00:18:23.969Z,87.77
2022-10-19T00:18:59.833Z,87.46
2022-10-19T00:19:31.657Z,87.55
2022-10-19T00:20:03.418Z,87.72
2022-10-19T00:20:36.609Z,87.01
2022-10-19T00:21:10.353Z,87.58
2022-10-19T00:21:42.260Z,87.35
2022-10-19T00:22:14.233Z,87.05
2022-10-19T00:22:49.693Z,87.56
2022-10-19T00:23:22.875Z,86.97
2022-10-19T00:23:54.337Z,87.13
2022-10-19T00:24:25.877Z,87.46
2022-10-19T00:24:57.873Z,87.43
2022-10-19T00:25:29.489Z,87.10
2022-10-19T00:26:01.179Z,87.09
2022-10-19T00:26:33.176Z,87.56
2022-10-19T00:27:04.804Z,87.18
2022-10-19T00:27:37.317Z,87.23
2022-10-19T00:28:08.738Z,87.22
2022-10-19T00:28:40.420Z,87.04
2022-10-19T00:29:13.946Z,87.60
2022-10-19T00:29:45.697Z,86.86
2022-10-19T00:30:17.640Z,87.59
2022-10-19T00:31:26.334Z,87.40
2022-10-19T00:31:57.941Z,87.40
2022-10-19T00:32:29.489Z,87.63
2022-10-19T00:33:00.994Z,86.99
2022-10-19T00:33:32.923Z,87.22
2022-10-19T00:34:04.372Z,86.95
2022-10-19T00:34:35.833Z,87.19
2022-10-19T00:35:07.793Z,87.05
2022-10-19T00:35:42.028Z,87.64
2022-10-19T00:36:35.410Z,86.92
2022-10-19T00:37:07.083Z,87.27
2022-10-19T00:37:38.727Z,87.42
2022-10-19T00:38:10.605Z,87.74
2022-10-19T00:38:44.804Z,87.50
2022-10-19T00:39:17.730Z,87.18
2022-10-19T00:39:49.132Z,87.68
2022-10-19T00:40:22.947Z,87.17
2022-10-19T00:40:54.666Z,87.09
2022-10-19T00:41:29.877Z,87.27
2022-10-19T00:42:01.445Z,87.71
2022-10-19T00:42:33.275Z,87.43
2022-10-19T00:43:12.796Z,87.71
2022-10-19T00:44:16.494Z,87.38
2022-10-19T00:44:47.886Z,86.93
2022-10-19T00:45:19.400Z,87.31
2022-10-19T00:45:51.176Z,86.92
2022-10-19T00:46:22.987Z,86.61
2022-10-19T00:46:59.457Z,87.00
2022-10-19T00:47:31.910Z,87.04
2022-10-19T00:48:03.517Z,86.74
2022-10-19T00:48:35.146Z,86.80
2022-10-19T00:49:12.824Z,87.23
2022-10-19T00:49:46.700Z,86.83
2022-10-19T00:50:18.646Z,87.13
2022-10-19T00:50:54.150Z,87.41
2022-10-19T00:51:28.131Z,87.09
2022-10-19T00:52:06.013Z,86.98
2022-10-19T00:52:37.543Z,87.16
2022-10-19T00:53:09.770Z,87.08
2022-10-19T00:53:41.716Z,87.01
2022-10-19T00:54:14.354Z,87.05
2022-10-19T00:54:47.325Z,87.26
2022-10-19T00:55:19.132Z,86.97
2022-10-19T00:55:51.031Z,87.01
2022-10-19T00:56:23.435Z,86.92
2022-10-19T00:56:57.632Z,87.11
2022-10-19T00:57:31.767Z,86.71
2022-10-19T00:58:03.667Z,87.02
2022-10-19T00:58:35.715Z,86.72
2022-10-19T00:59:08.977Z,86.89
2022-10-19T00:59:43.237Z,87.21
2022-10-19T01:00:14.759Z,86.73
2022-10-19T01:00:46.551Z,86.82
2022-10-19T01:01:20.647Z,87.22
2022-10-19T01:01:53.475Z,87.39
2022-10-19T01:02:25.236Z,86.87
2022-10-19T01:02:57.324Z,87.10
2022-10-19T01:03:29.046Z,87.41
2022-10-19T01:04:01.203Z,87.58
2022-10-19T01:04:35.596Z,87.13
2022-10-19T01:05:08.367Z,87.19
2022-10-19T01:05:40.836Z,87.13
2022-10-19T01:06:18.288Z,87.12
2022-10-19T01:07:26.868Z,87.06
2022-10-19T01:07:58.657Z,86.76
2022-10-19T01:08:30.366Z,87.10
2022-10-19T01:09:01.861Z,87.26
2022-10-19T01:09:33.592Z,87.04
2022-10-19T01:10:05.881Z,87.20
2022-10-19T01:11:05.697Z,87.27
2022-10-19T01:12:00.692Z,86.99
2022-10-19T01:12:47.831Z,86.80
2022-10-19T01:13:38.284Z,87.42
2022-10-19T01:14:28.640Z,86.96
2022-10-19T01:15:31.184Z,87.22
2022-10-19T01:16:12.012Z,87.04
2022-10-19T01:16:53.997Z,86.97
2022-10-19T01:17:50.016Z,87.12
2022-10-19T01:18:39.161Z,87.36
2022-10-19T01:19:54.873Z,87.35
2022-10-19T01:20:56.779Z,87.08
2022-10-19T01:21:51.486Z,87.07
2022-10-19T01:23:01.768Z,86.99
2022-10-19T01:23:55.871Z,87.30
2022-10-19T01:24:50.448Z,87.19
2022-10-19T01:25:33.429Z,87.61
2022-10-19T01:26:43.812Z,87.05
2022-10-19T01:27:33.407Z,87.36
2022-10-19T01:28:54.803Z,87.21
2022-10-19T01:30:08.107Z,87.77
2022-10-19T01:30:52.968Z,87.84
2022-10-19T01:31:29.595Z,87.70
2022-10-19T01:32:11.375Z,87.90
2022-10-19T01:32:53.136Z,87.50
2022-10-19T01:33:36.824Z,87.36
2022-10-19T01:34:15.346Z,87.66
2022-10-19T01:35:07.486Z,87.23
2022-10-19T01:35:48.528Z,87.37
2022-10-19T01:36:27.965Z,87.39
2022-10-19T01:37:08.184Z,87.60
2022-10-19T01:37:54.177Z,87.96
2022-10-19T01:38:32.106Z,87.42
2022-10-19T01:39:13.013Z,87.83
2022-10-19T01:39:57.406Z,87.60
2022-10-19T01:40:42.703Z,87.59
2022-10-19T01:41:21.081Z,87.64
2022-10-19T01:42:07.061Z,87.65
2022-10-19T01:42:56.273Z,87.90
2022-10-19T01:43:52.594Z,87.21
2022-10-19T01:45:02.101Z,87.58
2022-10-19T01:45:50.381Z,87.59
2022-10-19T01:46:32.469Z,87.47
2022-10-19T01:47:08.895Z,87.72
2022-10-19T01:47:57.567Z,88.15
2022-10-19T01:48:34.630Z,87.75
2022-10-19T01:49:32.437Z,87.54
2022-10-19T01:50:14.244Z,88.05
2022-10-19T01:51:02.634Z,88.19
2022-10-19T01:51:38.992Z,87.99
2022-10-19T01:52:14.911Z,88.06
2022-10-19T01:52:49.751Z,87.60
2022-10-19T01:53:22.832Z,87.89
2022-10-19T01:53:58.820Z,88.23
2022-10-19T01:54:36.239Z,88.27
2022-10-19T01:55:11.272Z,87.82
2022-10-19T01:55:45.063Z,88.14
2022-10-19T01:56:19.995Z,88.13
2022-10-19T01:56:58.457Z,88.03
2022-10-19T01:57:36.860Z,87.97
2022-10-19T01:58:13.236Z,88.18
2022-10-19T01:58:46.506Z,87.65
2022-10-19T01:59:20.892Z,87.83
2022-10-19T01:59:54.598Z,87.96
2022-10-19T02:00:27.541Z,88.22
2022-10-19T02:01:04.001Z,88.00
2022-10-19T02:01:38.530Z,87.70
2022-10-19T02:02:12.120Z,87.73
2022-10-19T02:02:47.923Z,87.85
2022-10-19T02:03:20.040Z,87.72
2022-10-19T02:03:53.695Z,88.15
2022-10-19T02:04:26.416Z,88.43
2022-10-19T02:04:58.685Z,88.43
2022-10-19T02:05:32.958Z,87.67
2022-10-19T02:06:07.463Z,87.96
2022-10-19T02:06:40.988Z,88.17
2022-10-19T02:07:12.697Z,88.36
2022-10-19T02:07:48.821Z,87.99
2022-10-19T02:08:36.238Z,88.18
2022-10-19T02:09:07.826Z,88.32
2022-10-19T02:09:39.298Z,88.11
2022-10-19T02:10:15.896Z,88.30
2022-10-19T02:10:48.069Z,88.03
2022-10-19T02:11:21.921Z,88.25
2022-10-19T02:11:57.493Z,88.13
2022-10-19T02:12:31.772Z,88.58
2022-10-19T02:13:04.815Z,88.21
2022-10-19T02:13:39.767Z,88.59
2022-10-19T02:14:14.723Z,88.22
2022-10-19T02:14:50.196Z,88.31
2022-10-19T02:15:26.019Z,88.80
2022-10-19T02:16:01.376Z,88.64
2022-10-19T02:16:38.022Z,88.46
2022-10-19T02:17:13.929Z,88.47
2022-10-19T02:17:52.018Z,88.44
2022-10-19T02:18:30.988Z,88.40
2022-10-19T02:19:05.090Z,88.76
2022-10-19T02:19:36.680Z,88.46
2022-10-19T02:20:08.752Z,88.45
2022-10-19T02:20:40.177Z,88.64
2022-10-19T02:21:12.023Z,88.42
2022-10-19T02:21:44.682Z,88.40
2022-10-19T02:22:16.161Z,88.12
2022-10-19T02:22:47.623Z,88.10
2022-10-19T02:23:22.063Z,88.24
2022-10-19T02:23:54.280Z,88.51
2022-10-19T02:24:25.915Z,87.99
2022-10-19T02:24:57.716Z,88.50
2022-10-19T02:25:29.222Z,88.72
2022-10-19T02:26:00.856Z,87.90
2022-10-19T02:26:33.124Z,87.95
2022-10-19T02:27:06.812Z,88.53
2022-10-19T02:27:44.865Z,88.39
2022-10-19T02:28:16.627Z,88.24
2022-10-19T02:28:48.784Z,87.94
2022-10-19T02:29:20.698Z,87.69
2022-10-19T02:29:54.089Z,87.97
2022-10-19T02:30:25.832Z,87.97
2022-10-19T02:30:58.291Z,88.22
2022-10-19T02:31:30.188Z,88.22
2022-10-19T02:32:05.109Z,88.09
2022-10-19T02:32:37.022Z,88.01
2022-10-19T02:33:08.916Z,88.37
2022-10-19T02:33:40.695Z,87.85
2022-10-19T02:34:13.055Z,88.09
2022-10-19T02:34:45.019Z,87.99
2022-10-19T02:35:19.138Z,88.07
2022-10-19T02:35:50.824Z,88.31
2022-10-19T02:36:22.539Z,88.05
2022-10-19T02:36:57.095Z,87.84
2022-10-19T02:37:28.644Z,88.07
2022-10-19T02:38:05.258Z,88.05
2022-10-19T02:38:36.950Z,88.10
2022-10-19T02:39:09.204Z,88.29
2022-10-19T02:39:40.865Z,87.75
2022-10-19T02:40:13.002Z,88.19
2022-10-19T02:40:51.572Z,87.70
2022-10-19T02:41:40.358Z,87.85
2022-10-19T02:42:11.805Z,87.88
2022-10-19T02:42:50.050Z,87.72
2022-10-19T02:43:26.038Z,87.76
2022-10-19T02:44:04.511Z,87.88
2022-10-19T02:44:47.699Z,87.72
2022-10-19T02:45:26.068Z,87.78
2022-10-19T02:46:04.936Z,87.80
2022-10-19T02:46:45.221Z,87.79
2022-10-19T02:47:25.991Z,88.29
2022-10-19T02:48:05.165Z,87.76
2022-10-19T02:48:39.005Z,87.50
2022-10-19T02:49:14.144Z,87.76
2022-10-19T02:49:47.262Z,87.96
2022-10-19T02:50:22.273Z,87.92
2022-10-19T02:50:53.773Z,88.15
2022-10-19T02:51:30.317Z,88.18
2022-10-19T02:52:05.218Z,88.34
2022-10-19T02:52:38.086Z,88.44
2022-10-19T02:53:09.862Z,88.57
2022-10-19T02:53:41.346Z,88.26
2022-10-19T02:54:12.916Z,88.48
2022-10-19T02:54:45.322Z,88.33
2022-10-19T02:55:17.069Z,88.61
2022-10-19T02:55:52.142Z,88.59
2022-10-19T02:56:23.535Z,88.53
2022-10-19T02:56:55.797Z,88.67
2022-10-19T02:57:27.380Z,88.63
2022-10-19T02:57:58.977Z,88.58
2022-10-19T02:58:30.381Z,88.14
2022-10-19T02:59:02.849Z,88.11
2022-10-19T02:59:34.319Z,88.51
2022-10-19T03:00:07.562Z,88.26
2022-10-19T03:00:39.286Z,88.81
2022-10-19T03:01:10.880Z,88.59
2022-10-19T03:01:42.409Z,88.63
2022-10-19T03:02:15.071Z,88.44
2022-10-19T03:02:46.726Z,88.78
2022-10-19T03:03:18.146Z,88.63
2022-10-19T03:03:49.621Z,88.80
2022-10-19T03:04:23.457Z,88.96
2022-10-19T03:04:54.898Z,88.93
2022-10-19T03:05:29.734Z,88.73
2022-10-19T03:06:01.175Z,88.94
2022-10-19T03:06:38.592Z,88.86
2022-10-19T03:07:11.565Z,88.83
2022-10-19T03:07:43.381Z,88.83
2022-10-19T03:08:15.037Z,89.12
2022-10-19T03:08:46.607Z,88.95
2022-10-19T03:09:18.185Z,88.79
2022-10-19T03:09:49.997Z,88.75
2022-10-19T03:10:24.000Z,88.65
2022-10-19T03:10:58.776Z,88.70
2022-10-19T03:11:30.188Z,88.96
2022-10-19T03:12:01.570Z,88.73
2022-10-19T03:12:33.105Z,88.88
2022-10-19T03:13:04.514Z,88.65
2022-10-19T03:13:35.931Z,88.90
2022-10-19T03:14:07.425Z,88.84
2022-10-19T03:14:39.393Z,88.83
2022-10-19T03:15:15.779Z,89.07
2022-10-19T03:15:48.031Z,88.59
2022-10-19T03:16:19.524Z,88.76
2022-10-19T03:16:50.945Z,88.81
2022-10-19T03:17:22.600Z,89.23
2022-10-19T03:17:54.006Z,88.72
2022-10-19T03:18:25.422Z,89.30
2022-10-19T03:18:56.799Z,88.92
2022-10-19T03:19:28.454Z,88.96
2022-10-19T03:19:59.895Z,89.41
2022-10-19T03:20:31.325Z,89.11
2022-10-19T03:21:13.324Z,89.13
2022-10-19T03:21:44.775Z,89.58
2022-10-19T03:22:16.222Z,88.97
2022-10-19T03:22:47.913Z,89.30
2022-10-19T03:23:19.366Z,89.01
2022-10-19T03:23:50.920Z,89.35
2022-10-19T03:24:22.678Z,89.12
2022-10-19T03:24:54.093Z,89.60
2022-10-19T03:25:26.513Z,89.20
2022-10-19T03:26:00.300Z,89.14
2022-10-19T03:26:32.012Z,89.06
2022-10-19T03:27:03.588Z,88.97
2022-10-19T03:27:35.425Z,88.92
2022-10-19T03:28:07.293Z,88.85
2022-10-19T03:28:38.755Z,88.86
2022-10-19T03:29:10.280Z,89.29
2022-10-19T03:29:41.719Z,89.25
2022-10-19T03:30:13.253Z,88.87
2022-10-19T03:30:46.772Z,89.01
2022-10-19T03:31:19.807Z,88.98
2022-10-19T03:31:51.338Z,89.23
2022-10-19T03:32:22.815Z,88.91
2022-10-19T03:32:54.396Z,89.34
2022-10-19T03:33:57.417Z,89.15
2022-10-19T03:34:28.859Z,89.30
2022-10-19T03:35:00.432Z,88.95
2022-10-19T03:35:31.765Z,88.55
2022-10-19T03:36:22.692Z,88.90
2022-10-19T03:36:54.282Z,88.72
2022-10-19T03:37:25.766Z,88.60
2022-10-19T03:37:57.393Z,88.73
2022-10-19T03:38:28.729Z,88.88
2022-10-19T03:39:05.286Z,88.79
2022-10-19T03:39:36.745Z,88.79
2022-10-19T03:40:08.711Z,88.85
2022-10-19T03:40:40.437Z,88.58
2022-10-19T03:41:13.208Z,89.11
2022-10-19T03:41:44.760Z,89.12
2022-10-19T03:42:16.160Z,88.97
2022-10-19T03:42:47.582Z,88.80
2022-10-19T03:43:18.993Z,88.95
2022-10-19T03:43:50.536Z,88.45
2022-10-19T03:44:22.017Z,89.16
2022-10-19T03:44:53.476Z,88.50
2022-10-19T03:45:25.054Z,88.95
2022-10-19T03:45:56.512Z,88.73
2022-10-19T03:46:28.325Z,88.74
2022-10-19T03:46:59.697Z,89.07
2022-10-19T03:47:31.446Z,88.69
2022-10-19T03:48:03.153Z,88.92
2022-10-19T03:48:34.965Z,88.70
2022-10-19T03:49:06.914Z,88.84
2022-10-19T03:49:40.280Z,88.97
2022-10-19T03:50:14.085Z,88.72
2022-10-19T03:50:45.525Z,88.90
2022-10-19T03:51:22.347Z,88.93
2022-10-19T03:51:53.901Z,88.79
2022-10-19T03:52:25.346Z,88.98
2022-10-19T03:52:56.773Z,88.85
2022-10-19T03:53:28.304Z,88.95
2022-10-19T03:54:02.020Z,89.02
2022-10-19T03:54:33.520Z,88.84
2022-10-19T03:55:05.485Z,88.75
2022-10-19T03:55:37.054Z,88.79
2022-10-19T03:56:12.353Z,88.61
2022-10-19T03:56:44.254Z,88.78
2022-10-19T03:57:15.666Z,88.87
2022-10-19T03:57:47.136Z,88.64
2022-10-19T03:58:18.544Z,88.60
2022-10-19T03:58:51.347Z,88.75
2022-10-19T03:59:24.341Z,88.85
2022-10-19T03:59:55.825Z,88.80
2022-10-19T04:00:27.230Z,88.99
2022-10-19T04:00:58.771Z,88.85
2022-10-19T04:01:33.363Z,88.75
2022-10-19T04:02:04.843Z,89.31
2022-10-19T04:02:36.303Z,89.06
2022-10-19T04:03:07.715Z,88.65
2022-10-19T04:03:39.192Z,88.96
2022-10-19T04:04:14.125Z,89.24
2022-10-19T04:04:45.575Z,89.15
2022-10-19T04:05:16.956Z,89.01
2022-10-19T04:05:48.339Z,88.54
2022-10-19T04:06:22.726Z,89.07
2022-10-19T04:06:54.190Z,89.07
2022-10-19T04:07:25.612Z,88.55
2022-10-19T04:07:57.029Z,88.83
2022-10-19T04:08:30.827Z,88.89
2022-10-19T04:09:03.719Z,88.60
2022-10-19T04:09:35.147Z,88.39
2022-10-19T04:10:07.093Z,88.82
2022-10-19T04:10:38.401Z,88.66
2022-10-19T04:11:13.661Z,88.64
2022-10-19T04:11:45.068Z,88.35
2022-10-19T04:12:16.460Z,88.61
2022-10-19T04:12:52.891Z,88.92
2022-10-19T04:13:25.204Z,88.70
2022-10-19T04:13:58.268Z,88.94
2022-10-19T04:14:33.064Z,88.67
2022-10-19T04:15:10.670Z,88.34
2022-10-19T04:15:42.162Z,88.96
2022-10-19T04:16:14.181Z,88.94
2022-10-19T04:16:45.504Z,89.16
2022-10-19T04:17:17.037Z,88.52
2022-10-19T04:17:48.754Z,88.91
2022-10-19T04:18:20.210Z,88.97
2022-10-19T04:18:51.725Z,89.14
2022-10-19T04:19:23.234Z,88.80
2022-10-19T04:19:54.698Z,88.76
2022-10-19T04:20:26.370Z,89.11
2022-10-19T04:20:59.618Z,88.76
2022-10-19T04:21:34.488Z,88.42
2022-10-19T04:22:05.848Z,88.74
2022-10-19T04:22:37.264Z,88.39
2022-10-19T04:23:08.670Z,88.85
2022-10-19T04:23:40.671Z,88.50
2022-10-19T04:24:14.499Z,88.72
2022-10-19T04:24:46.151Z,88.87
2022-10-19T04:25:17.721Z,88.66
2022-10-19T04:25:49.244Z,88.81
2022-10-19T04:26:20.825Z,88.94
2022-10-19T04:26:54.806Z,88.92
2022-10-19T04:27:26.252Z,88.83
2022-10-19T04:27:57.964Z,88.89
2022-10-19T04:28:30.327Z,89.07
2022-10-19T04:29:02.197Z,89.00
2022-10-19T04:29:33.905Z,88.68
2022-10-19T04:30:05.851Z,88.54
2022-10-19T04:30:37.233Z,88.85
2022-10-19T04:31:09.866Z,88.44
2022-10-19T04:31:41.783Z,88.60
2022-10-19T04:32:13.375Z,88.48
2022-10-19T04:32:44.790Z,88.92
2022-10-19T04:33:16.292Z,88.62
2022-10-19T04:33:47.837Z,88.69
2022-10-19T04:34:20.027Z,88.89
2022-10-19T04:34:51.668Z,88.79
2022-10-19T04:35:25.248Z,88.81
2022-10-19T04:36:05.680Z,89.09
2022-10-19T04:36:37.973Z,88.87
2022-10-19T04:37:09.309Z,89.03
2022-10-19T04:37:40.714Z,88.86
2022-10-19T04:38:12.133Z,88.79
2022-10-19T04:38:43.700Z,88.68
2022-10-19T04:39:15.238Z,88.71
2022-10-19T04:39:46.729Z,88.56
2022-10-19T04:40:18.334Z,88.91
2022-10-19T04:40:51.221Z,88.84
2022-10-19T04:41:23.141Z,88.46
2022-10-19T04:41:54.503Z,88.71
2022-10-19T04:42:26.167Z,88.52
2022-10-19T04:42:57.826Z,88.81
2022-10-19T04:43:29.916Z,87.94
2022-10-19T04:44:03.697Z,88.10
2022-10-19T04:44:35.098Z,88.46
2022-10-19T04:45:06.816Z,88.50
2022-10-19T04:45:38.336Z,88.40
2022-10-19T04:46:13.012Z,88.09
2022-10-19T04:46:44.688Z,88.21
2022-10-19T04:47:16.217Z,88.36
2022-10-19T04:47:47.713Z,88.54
2022-10-19T04:48:19.077Z,88.20
2022-10-19T04:48:50.969Z,88.36
2022-10-19T04:49:22.523Z,88.31
2022-10-19T04:49:53.907Z,88.49
2022-10-19T04:50:25.899Z,88.51
2022-10-19T04:50:57.448Z,88.52
2022-10-19T04:51:29.105Z,88.70
2022-10-19T04:52:00.689Z,88.92
2022-10-19T04:52:32.084Z,88.95
2022-10-19T04:53:03.532Z,89.06
2022-10-19T04:53:36.357Z,89.28
2022-10-19T04:54:07.829Z,88.78
2022-10-19T04:54:39.246Z,88.86
2022-10-19T04:55:10.830Z,88.82
2022-10-19T04:55:43.015Z,89.06
2022-10-19T04:56:20.125Z,88.75
2022-10-19T04:56:54.215Z,88.82
2022-10-19T04:57:25.612Z,88.99
2022-10-19T04:57:57.005Z,89.09
2022-10-19T04:58:28.500Z,89.21
2022-10-19T04:59:01.102Z,89.20
2022-10-19T04:59:32.661Z,89.46
2022-10-19T05:00:04.534Z,89.25
2022-10-19T05:00:37.918Z,89.02
2022-10-19T05:01:20.795Z,88.95
2022-10-19T05:01:52.215Z,89.21
2022-10-19T05:02:23.645Z,88.75
2022-10-19T05:02:55.144Z,88.81
2022-10-19T05:03:26.621Z,88.96
2022-10-19T05:04:01.462Z,89.17
2022-10-19T05:04:32.850Z,88.69
2022-10-19T05:05:04.619Z,89.15
2022-10-19T05:05:36.273Z,89.07
2022-10-19T05:06:08.818Z,89.04
2022-10-19T05:06:40.294Z,89.02
2022-10-19T05:07:11.709Z,89.12
2022-10-19T05:07:43.439Z,88.96
2022-10-19T05:08:14.915Z,89.47
2022-10-19T05:08:49.187Z,89.31
2022-10-19T05:09:20.934Z,89.05
2022-10-19T05:09:52.441Z,89.11
2022-10-19T05:10:24.057Z,89.36
2022-10-19T05:11:00.021Z,89.05
2022-10-19T05:11:31.432Z,89.35
2022-10-19T05:12:07.541Z,89.46
2022-10-19T05:12:39.251Z,89.60
2022-10-19T05:13:13.224Z,89.37
2022-10-19T05:13:47.623Z,89.28
2022-10-19T05:14:20.547Z,88.99
2022-10-19T05:14:52.037Z,89.30
2022-10-19T05:15:23.446Z,89.63
2022-10-19T05:16:02.833Z,88.97
2022-10-19T05:16:37.460Z,89.08
2022-10-19T05:17:08.902Z,89.24
2022-10-19T05:17:43.244Z,88.88
2022-10-19T05:18:14.676Z,89.04
2022-10-19T05:18:50.857Z,89.02
2022-10-19T05:19:22.336Z,89.16
2022-10-19T05:19:55.874Z,88.93
2022-10-19T05:20:27.478Z,88.91
2022-10-19T05:21:10.817Z,88.97
2022-10-19T05:21:42.548Z,89.10
2022-10-19T05:22:16.542Z,89.26
2022-10-19T05:22:48.086Z,89.05
2022-10-19T05:23:19.586Z,88.75
2022-10-19T05:23:52.724Z,88.70
2022-10-19T05:24:24.163Z,89.36
2022-10-19T05:24:58.080Z,88.71
2022-10-19T05:25:29.753Z,89.02
2022-10-19T05:26:01.423Z,88.82
2022-10-19T05:26:33.122Z,88.76
2022-10-19T05:27:04.717Z,88.94
2022-10-19T05:27:37.662Z,88.87
2022-10-19T05:28:09.136Z,89.23
2022-10-19T05:28:41.118Z,89.16
2022-10-19T05:29:14.022Z,89.30
2022-10-19T05:29:50.434Z,89.33
2022-10-19T05:30:22.288Z,89.19
2022-10-19T05:30:53.930Z,89.19
2022-10-19T05:31:28.369Z,88.99
2022-10-19T05:32:00.053Z,89.07
2022-10-19T05:32:31.737Z,89.06
2022-10-19T05:33:03.236Z,89.44
2022-10-19T05:33:37.712Z,89.11
2022-10-19T05:34:09.869Z,89.37
2022-10-19T05:34:41.850Z,89.02
2022-10-19T05:35:13.763Z,89.51
2022-10-19T05:35:46.190Z,89.61
2022-10-19T05:36:35.005Z,89.57
2022-10-19T05:37:06.460Z,89.50
2022-10-19T05:37:37.887Z,89.24
2022-10-19T05:38:09.525Z,89.26
2022-10-19T05:38:41.751Z,89.46
2022-10-19T05:39:17.133Z,89.73
2022-10-19T05:39:48.534Z,89.23
2022-10-19T05:40:19.952Z,89.71
2022-10-19T05:40:53.552Z,89.06
2022-10-19T05:41:29.029Z,89.28
2022-10-19T05:42:00.480Z,89.56
2022-10-19T05:42:31.892Z,89.65
2022-10-19T05:43:03.516Z,89.58
2022-10-19T05:43:35.066Z,89.37
2022-10-19T05:44:06.755Z,89.38
2022-10-19T05:45:10.500Z,89.29
2022-10-19T05:45:41.932Z,89.46
2022-10-19T05:46:18.182Z,89.69
2022-10-19T05:46:51.404Z,89.43
2022-10-19T05:47:26.208Z,89.46
2022-10-19T05:48:00.216Z,89.37
2022-10-19T05:48:34.945Z,89.70
2022-10-19T05:49:06.379Z,89.18
2022-10-19T05:49:37.836Z,89.20
2022-10-19T05:50:09.445Z,89.25
2022-10-19T05:50:42.172Z,89.48
2022-10-19T05:51:16.242Z,89.34
2022-10-19T05:51:48.521Z,89.14
2022-10-19T05:52:19.954Z,89.41
2022-10-19T05:52:51.502Z,89.51
2022-10-19T05:53:22.908Z,89.68
2022-10-19T05:53:55.498Z,89.79
2022-10-19T05:54:28.507Z,89.67
2022-10-19T05:55:00.197Z,89.82
2022-10-19T05:55:35.657Z,89.97
2022-10-19T05:56:10.880Z,89.42
2022-10-19T05:56:43.630Z,89.88
2022-10-19T05:57:15.053Z,89.49
2022-10-19T05:57:46.653Z,90.16
2022-10-19T05:58:18.319Z,89.48
2022-10-19T05:58:50.083Z,89.87
2022-10-19T05:59:22.300Z,89.53
2022-10-19T05:59:56.623Z,89.35
2022-10-19T06:00:28.171Z,89.44
2022-10-19T06:01:03.694Z,89.62
2022-10-19T06:01:35.440Z,89.68
2022-10-19T06:02:07.158Z,89.22
2022-10-19T06:02:38.613Z,89.28
2022-10-19T06:03:10.137Z,89.61
2022-10-19T06:03:41.792Z,90.05
2022-10-19T06:04:14.952Z,89.86
2022-10-19T06:04:49.172Z,90.16
2022-10-19T06:05:22.350Z,89.97
2022-10-19T06:05:55.045Z,89.76
2022-10-19T06:06:27.373Z,89.69
2022-10-19T06:07:00.950Z,89.92
2022-10-19T06:07:32.880Z,89.86
2022-10-19T06:08:08.588Z,89.73
2022-10-19T06:08:40.336Z,90.02
2022-10-19T06:09:12.379Z,89.66
2022-10-19T06:09:43.883Z,89.91
2022-10-19T06:10:15.393Z,89.85
2022-10-19T06:10:48.003Z,90.16
2022-10-19T06:11:30.532Z,90.15
2022-10-19T06:12:03.382Z,89.62
2022-10-19T06:12:37.729Z,89.78
2022-10-19T06:13:09.661Z,90.15
2022-10-19T06:13:45.276Z,89.90
2022-10-19T06:14:16.998Z,89.61
2022-10-19T06:14:52.366Z,89.80
2022-10-19T06:15:23.921Z,89.54
2022-10-19T06:15:56.848Z,90.15
2022-10-19T06:16:31.779Z,89.89
2022-10-19T06:17:03.328Z,89.83
2022-10-19T06:17:38.071Z,89.56
2022-10-19T06:18:15.927Z,89.83
2022-10-19T06:18:47.857Z,89.75
2022-10-19T06:19:19.550Z,90.19
2022-10-19T06:19:54.206Z,89.86
2022-10-19T06:20:28.997Z,89.86
2022-10-19T06:21:10.056Z,90.11
2022-10-19T06:21:45.730Z,89.71
2022-10-19T06:22:18.908Z,89.70
2022-10-19T06:22:50.559Z,90.26
2022-10-19T06:23:34.522Z,90.01
2022-10-19T06:24:11.494Z,90.07
2022-10-19T06:24:43.125Z,90.04
2022-10-19T06:25:18.071Z,90.03
2022-10-19T06:25:57.146Z,90.30
2022-10-19T06:26:30.320Z,89.97
2022-10-19T06:27:07.809Z,89.78
2022-10-19T06:27:42.015Z,89.87
2022-10-19T06:28:15.885Z,90.09
2022-10-19T06:28:52.259Z,90.10
2022-10-19T06:29:26.101Z,90.34
2022-10-19T06:29:58.945Z,90.58
2022-10-19T06:30:33.271Z,90.55
2022-10-19T06:31:09.353Z,90.41
2022-10-19T06:31:41.186Z,90.58
2022-10-19T06:32:13.009Z,90.23
2022-10-19T06:32:45.742Z,90.52
2022-10-19T06:33:19.993Z,90.54
2022-10-19T06:33:51.645Z,90.50
2022-10-19T06:34:23.472Z,90.54
2022-10-19T06:34:56.623Z,90.14
2022-10-19T06:35:33.689Z,90.47
2022-10-19T06:36:17.933Z,90.73
2022-10-19T06:36:52.466Z,90.62
2022-10-19T06:37:24.053Z,90.41
2022-10-19T06:37:58.580Z,90.49
2022-10-19T06:38:30.153Z,90.22
2022-10-19T06:39:01.955Z,90.41
2022-10-19T06:39:33.852Z,90.76
2022-10-19T06:40:12.032Z,90.13
2022-10-19T06:40:46.471Z,90.55
2022-10-19T06:41:18.145Z,90.83
2022-10-19T06:41:52.960Z,90.43
2022-10-19T06:42:29.594Z,90.37
2022-10-19T06:43:03.428Z,90.65
2022-10-19T06:43:38.441Z,90.31
2022-10-19T06:44:10.188Z,90.36
2022-10-19T06:44:42.973Z,90.63
2022-10-19T06:45:16.235Z,90.72
2022-10-19T06:45:50.537Z,90.74
2022-10-19T06:46:24.508Z,90.93
2022-10-19T06:47:00.799Z,90.86
2022-10-19T06:47:39.809Z,90.94
2022-10-19T06:48:11.711Z,90.34
2022-10-19T06:48:43.375Z,90.84
2022-10-19T06:49:15.100Z,90.91
2022-10-19T06:49:49.639Z,91.00
2022-10-19T06:50:21.149Z,90.59
2022-10-19T06:51:00.618Z,90.58
2022-10-19T06:51:34.275Z,90.70
2022-10-19T06:52:07.613Z,90.69
2022-10-19T06:52:43.947Z,91.02
2022-10-19T06:53:17.733Z,90.99
2022-10-19T06:53:56.592Z,91.15
2022-10-19T06:54:29.412Z,90.90
2022-10-19T06:55:01.446Z,90.96
2022-10-19T06:55:32.949Z,90.72
2022-10-19T06:56:09.559Z,90.68
2022-10-19T06:56:41.035Z,90.82
2022-10-19T06:57:12.740Z,90.74
2022-10-19T06:57:45.208Z,91.31
2022-10-19T06:58:16.624Z,91.12
2022-10-19T06:58:50.063Z,91.04
2022-10-19T06:59:21.661Z,90.81
2022-10-19T06:59:55.220Z,91.28
2022-10-19T07:00:28.925Z,91.03
2022-10-19T07:01:01.422Z,91.19
2022-10-19T07:01:32.949Z,91.20
2022-10-19T07:02:04.892Z,91.04
2022-10-19T07:02:39.106Z,91.13
2022-10-19T07:03:11.739Z,91.33
2022-10-19T07:03:43.680Z,91.08
2022-10-19T07:04:17.212Z,91.04
2022-10-19T07:04:48.728Z,91.19
2022-10-19T07:05:20.341Z,91.08
2022-10-19T07:05:59.153Z,91.21
2022-10-19T07:06:30.795Z,91.65
2022-10-19T07:07:02.475Z,91.37
2022-10-19T07:07:37.213Z,91.30
2022-10-19T07:08:08.886Z,91.32
2022-10-19T07:08:43.636Z,91.26
2022-10-19T07:09:19.120Z,91.27
2022-10-19T07:09:50.580Z,91.80
2022-10-19T07:10:24.558Z,91.34
2022-10-19T07:10:59.699Z,91.59
2022-10-19T07:11:31.222Z,91.55
2022-10-19T07:12:02.681Z,91.27
2022-10-19T07:12:34.084Z,91.63
2022-10-19T07:13:05.513Z,91.25
2022-10-19T07:13:36.940Z,91.42
2022-10-19T07:14:09.301Z,91.19
2022-10-19T07:14:40.795Z,91.49
2022-10-19T07:15:12.228Z,91.42
2022-10-19T07:15:43.958Z,91.72
2022-10-19T07:16:20.760Z,91.21
2022-10-19T07:16:53.140Z,91.58
2022-10-19T07:17:27.061Z,91.45
2022-10-19T07:17:58.636Z,91.42
2022-10-19T07:18:29.959Z,91.46
2022-10-19T07:19:01.323Z,92.33
2022-10-19T07:19:33.654Z,91.88
2022-10-19T07:20:05.500Z,92.89
2022-10-19T07:20:37.003Z,93.09
2022-10-19T07:21:13.500Z,93.31
2022-10-19T07:21:45.486Z,93.10
2022-10-19T07:22:21.220Z,93.02
2022-10-19T07:22:56.561Z,93.18